Terminal Aerodrome Forecast
Issued by NWS Tampa Bay Area, FL

Home | Current Version | Previous Version | Text Only | Print | Product List | Glossary On
Versions: 1 2 3 4 5 6 7 8 9 10 11 12 13 14 15 16
000
FTUS42 KTBW 011124
TAFSRQ
TAF
KSRQ 011124Z 0112/0212 17008KT P6SM SCT020 BKN080
     FM011400 20010KT P6SM VCSH SCT025 BKN100
     FM011800 22014G22KT P6SM VCTS SCT035CB BKN050 OVC100
     FM020100 20012KT P6SM VCTS SCT025CB BKN040
     FM020600 19008KT P6SM VCTS SCT020CB SCT040 OVC100=

USA.gov is the U.S. government's official web portal to all federal, state and local government web resources and services.